Time;durP1;ratioP1;P1;durP2;ratioP2;P2;SDS_P1;SDS_P2;PMS_P1;PMS_P2;Temp;Humidity;BMP_temperature;BMP_pressure;BME280_temperature;BME280_humidity;BME280_pressure;Samples;Min_cycle;Max_cycle;Signal;HPM_P1;HPM_P2
2022/06/06 00:01:38;;;;;;;6.88;5.20;;;17.00;99.90;;;;;;5009190;28;20028;-72
2022/06/06 00:04:03;;;;;;;11.80;6.07;;;17.00;99.90;;;;;;5023407;28;20119;-73
2022/06/06 00:06:29;;;;;;;12.52;5.60;;;17.00;99.90;;;;;;5035724;28;20021;-72
2022/06/06 00:08:57;;;;;;;7.95;4.93;;;16.90;99.90;;;;;;5027148;28;20387;-72
2022/06/06 00:11:24;;;;;;;8.63;5.45;;;16.90;99.90;;;;;;5030934;28;20413;-72
2022/06/06 00:13:50;;;;;;;8.35;5.63;;;16.90;99.90;;;;;;5030118;28;20025;-72
2022/06/06 00:16:16;;;;;;;11.73;5.30;;;16.90;99.90;;;;;;5015358;28;20025;-72
2022/06/06 00:18:43;;;;;;;10.05;5.78;;;16.90;99.90;;;;;;5016452;28;20056;-72
2022/06/06 00:21:11;;;;;;;9.02;5.90;;;16.90;99.90;;;;;;5035006;28;20029;-72
2022/06/06 00:23:38;;;;;;;8.00;5.25;;;16.80;99.90;;;;;;5036900;28;20018;-72
2022/06/06 00:26:10;;;;;;;11.95;6.40;;;16.80;99.90;;;;;;5019825;28;20046;-72
2022/06/06 00:28:37;;;;;;;7.93;5.28;;;16.80;99.90;;;;;;5019864;28;20030;-72
2022/06/06 00:36:34;;;;;;;6.25;5.43;;;16.90;99.90;;;;;;5022655;28;20080;-72
2022/06/06 00:39:01;;;;;;;7.82;5.50;;;16.90;99.90;;;;;;5010608;28;20075;-72
2022/06/06 00:41:27;;;;;;;7.80;5.85;;;16.90;99.90;;;;;;5007087;28;20033;-72
2022/06/06 00:44:14;;;;;;;8.82;5.28;;;16.90;99.90;;;;;;5029943;28;20029;-72
2022/06/06 00:46:51;;;;;;;8.43;5.18;;;16.90;99.90;;;;;;5028067;28;20025;-72
2022/06/06 00:49:40;;;;;;;8.63;5.72;;;16.90;99.90;;;;;;5033521;28;20034;-72
2022/06/06 00:52:18;;;;;;;8.30;6.13;;;16.90;99.90;;;;;;5006101;28;20075;-72
2022/06/06 00:54:47;;;;;;;8.57;5.78;;;16.90;99.90;;;;;;5033822;28;20026;-72
2022/06/06 00:57:18;;;;;;;9.38;5.72;;;16.70;99.90;;;;;;5036790;28;20485;-72
2022/06/06 00:59:45;;;;;;;8.32;5.65;;;16.70;99.90;;;;;;5023024;28;20041;-72
2022/06/06 01:02:13;;;;;;;7.20;5.38;;;16.70;99.90;;;;;;5019595;28;20157;-72
2022/06/06 01:04:40;;;;;;;9.93;5.50;;;16.70;99.90;;;;;;5023459;28;20510;-72
2022/06/06 01:07:09;;;;;;;12.65;6.65;;;16.60;99.90;;;;;;5022038;28;20022;-73
2022/06/06 01:09:36;;;;;;;11.35;6.25;;;16.60;99.90;;;;;;5032059;28;20018;-73
2022/06/06 01:12:07;;;;;;;7.13;5.40;;;16.70;99.90;;;;;;5015332;28;20121;-73
2022/06/06 01:14:37;;;;;;;8.60;6.28;;;16.70;99.90;;;;;;5034846;28;20037;-73
2022/06/06 01:17:20;;;;;;;10.30;6.40;;;16.60;99.90;;;;;;5017960;28;20029;-73
2022/06/06 01:20:07;;;;;;;10.40;5.53;;;16.50;99.90;;;;;;5029613;28;20033;-73
2022/06/06 01:22:51;;;;;;;12.02;5.97;;;16.50;99.90;;;;;;5029604;28;20533;-73
2022/06/06 01:25:49;;;;;;;10.85;5.50;;;16.40;99.90;;;;;;5031669;28;20456;-73
2022/06/06 01:28:40;;;;;;;7.00;5.78;;;16.40;99.90;;;;;;5015744;28;20021;-73
2022/06/06 01:31:11;;;;;;;11.18;6.03;;;16.30;99.90;;;;;;5025243;28;20056;-72
2022/06/06 01:34:00;;;;;;;7.78;5.47;;;16.30;99.90;;;;;;5035306;28;20030;-73
2022/06/06 01:36:29;;;;;;;9.70;5.13;;;16.20;99.90;;;;;;5025383;28;20128;-73
2022/06/06 01:38:57;;;;;;;12.00;5.88;;;16.20;99.90;;;;;;5019003;28;20045;-73
2022/06/06 01:41:39;;;;;;;9.27;6.32;;;16.20;99.90;;;;;;5018490;28;20034;-73
2022/06/06 01:44:37;;;;;;;6.93;6.10;;;16.10;99.90;;;;;;5030154;28;20021;-73
2022/06/06 01:47:07;;;;;;;10.73;6.45;;;16.10;99.90;;;;;;5025336;28;20052;-73
2022/06/06 01:49:34;;;;;;;9.80;6.07;;;16.10;99.90;;;;;;5023331;28;20101;-73
2022/06/06 01:52:02;;;;;;;9.30;5.68;;;16.10;99.90;;;;;;5032659;28;20034;-73
2022/06/06 01:54:28;;;;;;;7.75;5.50;;;16.10;99.90;;;;;;5010562;28;20022;-73
2022/06/06 01:56:54;;;;;;;7.40;6.18;;;16.00;99.90;;;;;;5034468;28;20031;-73
2022/06/06 01:59:20;;;;;;;8.52;5.50;;;16.00;99.90;;;;;;5031159;28;20022;-73
2022/06/06 02:01:46;;;;;;;7.85;6.55;;;16.10;99.90;;;;;;5037258;28;20505;-73
2022/06/06 02:04:12;;;;;;;8.07;6.60;;;16.00;99.90;;;;;;5038029;28;20434;-73
2022/06/06 02:06:39;;;;;;;7.93;5.78;;;16.00;99.90;;;;;;5036192;28;20018;-73
2022/06/06 02:09:05;;;;;;;10.07;6.00;;;16.00;99.90;;;;;;5033788;28;20046;-73
2022/06/06 02:11:31;;;;;;;7.90;5.93;;;16.00;99.90;;;;;;5016433;28;20025;-73
2022/06/06 02:13:57;;;;;;;9.82;6.65;;;15.90;99.90;;;;;;5028245;28;20026;-73
2022/06/06 02:16:24;;;;;;;7.60;5.70;;;15.90;99.90;;;;;;5014427;28;20041;-72
2022/06/06 02:18:50;;;;;;;10.20;5.90;;;15.90;99.90;;;;;;5024459;28;20057;-72
2022/06/06 02:21:16;;;;;;;9.77;6.07;;;15.80;99.90;;;;;;5037922;28;20029;-72
2022/06/06 02:23:43;;;;;;;11.02;5.82;;;15.80;99.90;;;;;;5008789;28;20026;-72
2022/06/06 02:26:09;;;;;;;8.25;6.18;;;15.80;99.90;;;;;;5033473;28;20021;-72
2022/06/06 02:28:36;;;;;;;10.63;5.90;;;15.80;99.90;;;;;;5010761;28;20105;-72
2022/06/06 02:31:03;;;;;;;12.68;6.45;;;15.70;99.90;;;;;;5034967;28;20481;-72
2022/06/06 02:33:29;;;;;;;11.35;6.28;;;15.80;99.90;;;;;;5031913;28;20025;-73
2022/06/06 02:35:55;;;;;;;10.55;6.75;;;15.70;99.90;;;;;;5018821;28;20397;-73
2022/06/06 02:38:21;;;;;;;7.03;6.32;;;15.70;99.90;;;;;;5037414;28;20076;-72
2022/06/06 02:40:47;;;;;;;9.00;5.40;;;15.70;99.90;;;;;;5021383;28;20434;-72
2022/06/06 02:43:14;;;;;;;11.43;6.68;;;15.70;99.90;;;;;;5007970;28;20025;-72
2022/06/06 02:45:40;;;;;;;8.60;6.07;;;15.60;99.90;;;;;;5020605;28;20029;-72
2022/06/06 02:48:08;;;;;;;8.23;6.30;;;15.60;99.90;;;;;;5021482;28;20046;-73
2022/06/06 02:50:36;;;;;;;10.60;6.95;;;15.60;99.90;;;;;;5006490;28;20502;-72
2022/06/06 02:53:02;;;;;;;20.33;7.05;;;15.50;99.90;;;;;;5006599;28;20026;-72
2022/06/06 02:55:31;;;;;;;7.28;6.10;;;15.50;99.90;;;;;;5027735;28;20029;-73
2022/06/06 02:57:59;;;;;;;12.23;7.13;;;15.50;99.90;;;;;;5026614;28;20092;-72
2022/06/06 03:00:28;;;;;;;11.23;7.32;;;15.50;99.90;;;;;;5029722;28;20021;-73
2022/06/06 03:02:55;;;;;;;10.20;6.88;;;15.60;99.90;;;;;;5029076;28;20018;-72
2022/06/06 03:05:21;;;;;;;7.45;6.68;;;15.60;99.90;;;;;;5034056;28;20030;-72
2022/06/06 03:08:02;;;;;;;12.70;7.53;;;15.60;99.90;;;;;;5030826;28;20110;-72
2022/06/06 03:10:30;;;;;;;;;;;15.60;99.90;;;;;;5018563;28;20036;-72
2022/06/06 03:13:18;;;;;;;10.18;6.82;;;15.60;99.90;;;;;;5031330;28;20492;-72
2022/06/06 03:22:54;;;;;;;12.98;6.97;;;15.60;99.90;;;;;;5015690;28;20022;-72
2022/06/06 03:25:27;;;;;;;9.23;6.55;;;15.50;99.90;;;;;;5014377;28;20045;-72
2022/06/06 03:28:11;;;;;;;8.88;7.25;;;15.50;99.90;;;;;;5027318;28;20045;-72
2022/06/06 03:30:50;;;;;;;8.52;6.95;;;15.40;99.90;;;;;;5028088;28;20021;-72
2022/06/06 03:33:40;;;;;;;11.90;7.07;;;15.40;99.90;;;;;;5009334;28;20621;-72
2022/06/06 03:36:23;;;;;;;7.97;6.38;;;15.30;99.90;;;;;;5027344;28;20147;-72
2022/06/06 03:39:02;;;;;;;11.95;7.25;;;15.20;99.90;;;;;;5031992;28;20064;-72
2022/06/06 03:42:07;;;;;;;10.23;6.40;;;15.10;99.90;;;;;;5014674;28;20053;-73
2022/06/06 03:44:50;;;;;;;7.15;6.45;;;15.10;99.90;;;;;;5029592;28;20021;-73
2022/06/06 03:47:42;;;;;;;12.38;7.25;;;15.00;99.90;;;;;;5007457;28;20045;-73
2022/06/06 03:50:28;;;;;;;11.30;7.25;;;15.00;99.90;;;;;;5016120;28;20030;-74
2022/06/06 03:53:15;;;;;;;12.95;6.65;;;15.00;99.90;;;;;;5019525;28;20087;-73
2022/06/06 03:56:23;;;;;;;9.35;6.65;;;15.00;99.90;;;;;;5020641;28;20018;-73
2022/06/06 03:58:50;;;;;;;8.88;6.32;;;15.00;99.90;;;;;;5003596;28;20025;-74
2022/06/06 04:01:20;;;;;;;10.98;7.35;;;14.90;99.90;;;;;;5024450;28;20014;-74
2022/06/06 04:03:48;;;;;;;12.85;6.15;;;14.90;99.90;;;;;;5025584;28;20026;-73
2022/06/06 04:06:17;;;;;;;12.52;6.65;;;14.80;99.90;;;;;;5027182;28;20021;-74
2022/06/06 04:08:43;;;;;;;9.38;7.15;;;14.90;99.90;;;;;;5028613;28;20029;-74
2022/06/06 04:11:23;;;;;;;9.38;6.45;;;14.90;99.90;;;;;;5030369;28;20021;-73
2022/06/06 04:14:25;;;;;;;8.80;7.45;;;14.90;99.90;;;;;;5036713;28;20044;-73
2022/06/06 04:17:10;;;;;;;12.10;7.20;;;14.90;99.90;;;;;;5025518;28;20038;-73
2022/06/06 04:19:41;;;;;;;11.68;6.85;;;14.90;99.90;;;;;;5003616;28;20033;-73
2022/06/06 04:22:20;;;;;;;8.63;6.75;;;14.90;99.90;;;;;;5002909;28;20028;-73
2022/06/06 04:25:29;;;;;;;13.02;6.20;;;14.80;99.90;;;;;;5005096;28;20030;-73
2022/06/06 04:28:06;;;;;;;13.30;6.25;;;14.80;99.90;;;;;;5022795;28;20394;-73
2022/06/06 04:31:01;;;;;;;9.35;6.60;;;14.80;99.90;;;;;;5025477;28;20037;-73
2022/06/06 04:34:00;;;;;;;11.90;6.78;;;14.80;99.90;;;;;;4924252;28;20067;-73
2022/06/06 04:36:42;;;;;;;12.82;7.07;;;14.80;99.90;;;;;;5012309;28;20041;-74
2022/06/06 04:39:18;;;;;;;12.95;7.80;;;14.90;99.90;;;;;;5015243;28;20082;-74
2022/06/06 04:41:54;;;;;;;16.50;7.63;;;14.90;99.90;;;;;;5013319;28;20145;-73
2022/06/06 04:44:34;;;;;;;15.13;7.53;;;14.90;99.90;;;;;;5035004;28;20021;-74
2022/06/06 04:47:35;;;;;;;21.05;7.75;;;14.90;99.90;;;;;;5035044;28;20452;-74
2022/06/06 04:50:07;;;;;;;18.00;8.05;;;14.90;99.90;;;;;;5004021;28;20578;-74
2022/06/06 04:52:36;;;;;;;12.48;8.20;;;15.00;99.90;;;;;;5018792;28;20441;-74
2022/06/06 04:55:05;;;;;;;19.33;8.63;;;15.10;99.90;;;;;;5021723;28;20022;-74
2022/06/06 04:57:31;;;;;;;14.90;7.72;;;15.20;99.90;;;;;;5002730;28;20401;-74
2022/06/06 04:59:59;;;;;;;17.25;8.00;;;15.20;99.90;;;;;;5025174;28;20017;-74
2022/06/06 05:02:26;;;;;;;18.55;7.20;;;15.30;99.90;;;;;;5022465;28;20026;-74
2022/06/06 05:04:52;;;;;;;14.25;7.72;;;15.40;99.90;;;;;;5010551;28;20025;-73
2022/06/06 05:07:51;;;;;;;15.27;7.38;;;15.40;99.90;;;;;;5025370;28;20018;-73
2022/06/06 05:10:31;;;;;;;18.52;7.22;;;15.60;99.90;;;;;;5025404;28;20018;-73
2022/06/06 05:12:59;;;;;;;20.10;8.35;;;15.70;99.90;;;;;;5036006;28;20053;-73
2022/06/06 05:16:02;;;;;;;16.83;7.60;;;15.70;99.90;;;;;;5030308;28;20026;-74
2022/06/06 05:18:57;;;;;;;19.30;8.00;;;15.90;99.90;;;;;;5018901;28;20026;-73
2022/06/06 05:22:05;;;;;;;13.10;7.20;;;16.00;99.90;;;;;;5002588;28;20097;-74
2022/06/06 05:24:54;;;;;;;13.65;8.05;;;16.10;99.90;;;;;;5013332;28;20030;-73
2022/06/06 05:27:59;;;;;;;16.15;8.48;;;16.20;99.90;;;;;;5029859;28;20017;-74
2022/06/06 05:30:45;;;;;;;12.15;8.35;;;16.30;99.90;;;;;;5011262;28;20034;-74
2022/06/06 05:33:18;;;;;;;14.95;8.40;;;16.50;99.90;;;;;;5030617;28;20101;-74
2022/06/06 05:36:17;;;;;;;18.50;8.07;;;16.60;99.90;;;;;;5035933;28;20482;-74
2022/06/06 05:39:00;;;;;;;13.45;8.90;;;16.60;99.90;;;;;;5040256;28;20389;-74
2022/06/06 05:41:48;;;;;;;15.50;9.73;;;16.80;99.90;;;;;;5032794;28;20110;-74
2022/06/06 05:44:39;;;;;;;14.60;9.68;;;16.90;99.90;;;;;;5033083;28;20032;-74
2022/06/06 05:47:13;;;;;;;;;;;17.00;99.90;;;;;;5016908;28;20062;-74
2022/06/06 05:50:08;;;;;;;16.77;9.15;;;17.10;99.90;;;;;;5026550;28;20208;-74
2022/06/06 05:52:43;;;;;;;12.77;8.50;;;17.20;99.90;;;;;;5035782;28;20095;-74
2022/06/06 05:55:30;;;;;;;10.35;7.93;;;17.40;99.90;;;;;;5036055;28;20021;-74
2022/06/06 05:58:08;;;;;;;15.23;9.05;;;17.50;99.90;;;;;;5037522;28;20033;-74
2022/06/06 06:00:55;;;;;;;19.48;8.02;;;17.60;99.90;;;;;;5021599;28;20441;-74
2022/06/06 06:03:35;;;;;;;18.92;8.85;;;17.70;99.90;;;;;;5021276;28;20026;-75
2022/06/06 06:06:18;;;;;;;21.15;9.02;;;17.70;99.90;;;;;;5005201;28;20116;-74
2022/06/06 06:08:53;;;;;;;14.00;8.60;;;17.80;99.90;;;;;;5005132;28;20379;-74
2022/06/06 06:11:27;;;;;;;13.50;9.05;;;17.80;99.90;;;;;;5027078;28;20068;-75
2022/06/06 06:14:15;;;;;;;14.65;7.95;;;17.80;99.90;;;;;;5006769;28;20026;-74
2022/06/06 06:16:47;;;;;;;15.98;9.07;;;18.00;99.90;;;;;;5033737;28;20029;-75
2022/06/06 06:19:19;;;;;;;11.60;8.35;;;18.10;99.90;;;;;;5030696;28;20048;-74
2022/06/06 06:21:50;;;;;;;19.52;8.85;;;18.10;99.90;;;;;;5014391;28;20025;-74
2022/06/06 06:24:24;;;;;;;;;;;18.30;99.90;;;;;;5017028;28;20052;-73
2022/06/06 06:26:54;;;;;;;13.35;8.15;;;18.40;99.90;;;;;;5034564;28;19905;-74
2022/06/06 06:29:20;;;;;;;16.95;8.23;;;18.50;99.90;;;;;;5008723;28;20482;-72
2022/06/06 06:32:18;;;;;;;15.43;8.27;;;18.70;99.90;;;;;;5037858;28;20163;-72
2022/06/06 06:35:01;;;;;;;21.40;8.55;;;18.80;99.90;;;;;;4977293;28;20040;-71
2022/06/06 06:38:06;;;;;;;12.40;7.10;;;19.00;99.90;;;;;;5020981;28;20032;-72
2022/06/06 06:40:47;;;;;;;14.60;7.47;;;19.10;99.90;;;;;;5005912;28;20095;-72
2022/06/06 06:43:54;;;;;;;15.00;7.20;;;19.10;99.90;;;;;;5005190;28;20143;-72
2022/06/06 06:46:43;;;;;;;13.57;8.73;;;19.20;99.90;;;;;;4914107;29;20032;-72
2022/06/06 06:49:30;;;;;;;10.00;7.40;;;19.20;99.90;;;;;;4937562;29;20138;-72
2022/06/06 06:52:41;;;;;;;9.98;7.65;;;19.30;99.90;;;;;;5007585;28;20045;-73
2022/06/06 06:55:27;;;;;;;;;;;19.30;99.90;;;;;;4916031;29;20070;-73
2022/06/06 06:57:59;;;;;;;18.00;7.88;;;19.40;99.90;;;;;;4912046;29;19908;-72
2022/06/06 07:00:25;;;;;;;11.43;7.28;;;19.40;99.90;;;;;;4983292;28;20033;-72
2022/06/06 07:08:53;;;;;;;8.52;5.82;;;19.80;99.90;;;;;;5028705;28;20092;-72
2022/06/06 07:11:25;;;;;;;13.32;7.75;;;19.90;99.90;;;;;;5022595;28;20029;-72
2022/06/06 07:14:05;;;;;;;9.10;6.25;;;20.00;99.90;;;;;;5020449;28;20474;-72
2022/06/06 07:16:39;;;;;;;10.07;6.40;;;20.10;99.90;;;;;;5029121;28;20033;-73
2022/06/06 07:19:13;;;;;;;12.90;6.45;;;20.30;99.90;;;;;;5024480;28;20475;-72
2022/06/06 07:21:41;;;;;;;8.30;5.43;;;20.40;99.90;;;;;;5025125;28;20060;-72
2022/06/06 07:24:10;;;;;;;11.65;5.88;;;20.60;99.90;;;;;;5026925;28;20065;-72
2022/06/06 07:26:39;;;;;;;10.52;5.28;;;20.70;99.90;;;;;;5028119;28;20076;-72
2022/06/06 07:29:07;;;;;;;8.85;5.15;;;20.90;99.90;;;;;;5029350;28;20093;-72
2022/06/06 07:31:52;;;;;;;9.80;5.97;;;20.90;99.90;;;;;;5013755;28;20029;-72
2022/06/06 07:34:55;;;;;;;8.68;5.45;;;21.00;99.90;;;;;;5025234;28;20025;-73
2022/06/06 07:37:49;;;;;;;7.60;6.03;;;21.10;99.90;;;;;;5016148;28;20108;-73
2022/06/06 07:40:30;;;;;;;11.10;5.43;;;21.30;99.90;;;;;;5017964;28;20117;-72
2022/06/06 07:43:29;;;;;;;16.58;5.85;;;21.40;99.90;;;;;;5037820;28;20021;-73
2022/06/06 07:46:38;;;;;;;9.35;4.65;;;21.50;99.90;;;;;;5019473;28;20466;-73
2022/06/06 07:49:18;;;;;;;12.70;5.95;;;21.60;99.90;;;;;;4954795;29;20106;-73
2022/06/06 07:52:18;;;;;;;8.68;5.15;;;21.60;99.90;;;;;;5023507;28;20037;-72
2022/06/06 07:55:08;;;;;;;7.87;4.70;;;21.60;99.90;;;;;;5011121;28;20092;-73
2022/06/06 07:57:48;;;;;;;9.60;5.22;;;21.80;99.90;;;;;;5031771;28;20256;-73
2022/06/06 08:00:20;;;;;;;6.85;4.88;;;21.90;99.90;;;;;;5025085;28;20029;-72
2022/06/06 08:02:57;;;;;;;9.25;4.35;;;22.10;99.90;;;;;;5034449;28;20384;-73
2022/06/06 08:05:43;;;;;;;7.05;3.95;;;22.20;99.90;;;;;;5036883;28;20017;-73
2022/06/06 08:08:35;;;;;;;8.77;3.75;;;22.40;99.90;;;;;;5032334;28;20022;-73
2022/06/06 08:11:18;;;;;;;6.97;3.60;;;22.50;99.90;;;;;;5002927;28;20183;-73
2022/06/06 08:14:15;;;;;;;6.18;3.55;;;22.60;99.90;;;;;;5019903;28;20041;-74
2022/06/06 08:16:48;;;;;;;6.45;3.78;;;22.70;99.90;;;;;;5010296;28;20025;-74
2022/06/06 08:19:39;;;;;;;7.75;3.40;;;22.70;99.90;;;;;;5025719;28;20074;-72
2022/06/06 08:22:06;;;;;;;8.50;3.38;;;22.90;99.90;;;;;;5024175;28;20098;-74
2022/06/06 08:24:39;;;;;;;11.27;3.38;;;23.00;99.90;;;;;;5030409;28;20426;-73
2022/06/06 08:27:16;;;;;;;9.80;4.95;;;23.10;99.90;;;;;;5027163;28;20048;-73
2022/06/06 08:29:43;;;;;;;21.90;12.98;;;23.10;99.90;;;;;;5031316;28;20478;-73
2022/06/06 08:32:10;;;;;;;16.80;10.02;;;23.10;99.90;;;;;;5030090;28;20017;-72
2022/06/06 08:34:37;;;;;;;23.23;13.18;;;23.10;99.90;;;;;;5016398;28;20036;-73
2022/06/06 08:37:53;;;;;;;8.60;4.57;;;23.10;99.90;;;;;;5032263;28;20233;-73
2022/06/06 08:41:07;;;;;;;7.45;3.83;;;23.20;99.90;;;;;;4937637;29;20059;-73
2022/06/06 08:43:58;;;;;;;8.95;4.85;;;23.40;99.90;;;;;;5000321;28;20038;-73
2022/06/06 08:47:05;;;;;;;5.72;3.15;;;23.50;99.90;;;;;;5000834;28;20026;-73
2022/06/06 08:53:11;;;;;;;11.40;6.00;;;23.60;99.90;;;;;;5028008;28;20498;-73
2022/06/06 08:55:56;;;;;;;10.32;4.97;;;23.70;99.90;;;;;;5026324;28;20474;-73
2022/06/06 08:58:53;;;;;;;7.70;4.20;;;23.80;99.90;;;;;;5030888;28;20089;-73
2022/06/06 09:01:25;;;;;;;6.68;3.10;;;23.80;99.90;;;;;;5031295;28;20018;-73
2022/06/06 09:04:11;;;;;;;7.43;3.03;;;24.00;99.90;;;;;;5035198;28;20026;-73
2022/06/06 09:07:29;;;;;;;11.05;5.13;;;24.10;99.90;;;;;;5031699;28;20045;-73
2022/06/06 09:10:22;;;;;;;11.73;4.57;;;24.40;99.90;;;;;;5033128;28;20022;-74
2022/06/06 09:13:06;;;;;;;4.40;3.05;;;24.20;99.90;;;;;;5028400;28;20056;-73
2022/06/06 09:16:17;;;;;;;10.88;4.85;;;24.10;99.90;;;;;;5029996;28;20048;-75
2022/06/06 09:18:55;;;;;;;;;;;24.20;99.90;;;;;;5018495;28;20149;-74
2022/06/06 09:21:50;;;;;;;12.43;5.95;;;24.30;99.90;;;;;;5015601;28;19917;-74
2022/06/06 09:24:36;;;;;;;9.70;3.05;;;24.40;99.90;;;;;;5015401;28;20017;-73
2022/06/06 09:27:23;;;;;;;9.18;4.45;;;24.60;99.90;;;;;;5007192;28;20038;-74
2022/06/06 09:29:52;;;;;;;7.05;3.47;;;24.70;99.90;;;;;;5022832;28;20018;-74
2022/06/06 09:32:35;;;;;;;7.53;2.72;;;24.90;99.90;;;;;;5026102;28;20043;-73
2022/06/06 09:35:27;;;;;;;9.77;3.00;;;25.00;99.90;;;;;;5024348;28;20041;-74
2022/06/06 09:38:09;;;;;;;6.63;2.92;;;25.20;99.90;;;;;;5025047;28;20030;-74
2022/06/06 09:41:13;;;;;;;6.45;3.05;;;25.20;99.90;;;;;;5034901;28;20018;-74
2022/06/06 09:44:17;;;;;;;5.85;3.30;;;25.00;99.90;;;;;;5031554;28;20014;-74
2022/06/06 09:47:09;;;;;;;6.13;3.42;;;24.90;99.90;;;;;;5002194;28;20034;-74
2022/06/06 09:49:54;;;;;;;6.85;3.28;;;24.90;99.90;;;;;;4980319;28;20042;-74
2022/06/06 09:52:44;;;;;;;5.60;2.45;;;24.90;99.90;;;;;;5017938;28;20056;-74
2022/06/06 10:00:54;;;;;;;5.53;2.75;;;25.30;99.90;;;;;;5021101;28;20033;-74
2022/06/06 10:03:57;;;;;;;4.10;2.72;;;25.40;99.90;;;;;;5026553;28;20025;-73
2022/06/06 10:06:44;;;;;;;7.82;2.92;;;25.50;99.90;;;;;;5026410;28;20071;-73
2022/06/06 10:09:19;;;;;;;6.88;3.28;;;25.60;99.90;;;;;;5012665;28;20564;-74
2022/06/06 10:12:20;;;;;;;4.40;2.65;;;25.70;99.90;;;;;;5016650;28;20030;-74
2022/06/06 10:14:54;;;;;;;6.05;2.80;;;25.80;99.90;;;;;;5035421;28;20021;-74
2022/06/06 10:17:44;;;;;;;8.48;3.78;;;26.00;99.90;;;;;;5016400;28;20034;-74
2022/06/06 10:20:10;;;;;;;14.52;3.35;;;25.90;99.90;;;;;;5020300;28;20037;-73
2022/06/06 10:22:44;;;;;;;4.88;2.65;;;25.80;99.90;;;;;;5037657;28;20036;-73
2022/06/06 10:25:29;;;;;;;8.85;3.38;;;25.90;99.90;;;;;;5039097;28;20021;-74
2022/06/06 10:28:13;;;;;;;4.40;2.78;;;25.90;99.90;;;;;;5021673;28;20029;-73
2022/06/06 10:31:08;;;;;;;7.32;3.83;;;26.10;99.90;;;;;;5025105;28;20436;-74
2022/06/06 10:33:43;;;;;;;8.52;3.13;;;26.20;99.90;;;;;;5018576;28;20017;-74
2022/06/06 10:36:40;;;;;;;7.72;2.85;;;26.20;99.90;;;;;;5038200;28;20021;-74
2022/06/06 10:39:21;;;;;;;3.85;2.50;;;26.20;99.90;;;;;;5009832;28;20469;-74
2022/06/06 10:42:09;;;;;;;4.50;2.80;;;26.40;99.90;;;;;;5035342;28;20040;-73
2022/06/06 10:44:53;;;;;;;5.20;3.15;;;26.50;99.90;;;;;;5038751;28;20022;-74
2022/06/06 10:47:42;;;;;;;6.03;2.58;;;26.70;99.90;;;;;;5020363;28;20053;-75
2022/06/06 10:53:51;;;;;;;7.05;2.83;;;26.60;99.90;;;;;;5005021;28;20032;-75
2022/06/06 10:56:38;;;;;;;8.15;3.20;;;26.60;99.90;;;;;;5024904;28;20022;-75
2022/06/06 10:59:25;;;;;;;5.63;2.90;;;26.30;99.90;;;;;;5025202;28;20022;-75
2022/06/06 11:02:24;;;;;;;4.82;2.53;;;26.20;99.90;;;;;;5026124;28;20060;-74
2022/06/06 11:05:45;;;;;;;5.05;2.25;;;26.30;99.90;;;;;;5031885;28;20100;-74
2022/06/06 11:08:17;;;;;;;6.57;2.70;;;26.40;99.90;;;;;;4939432;29;20027;-74
2022/06/06 11:11:16;;;;;;;6.15;2.85;;;26.30;99.90;;;;;;4923391;29;20036;-75
2022/06/06 11:14:04;;;;;;;3.05;2.45;;;26.50;99.90;;;;;;5018129;28;20440;-75
2022/06/06 11:16:36;;;;;;;4.13;2.55;;;26.70;99.90;;;;;;5032830;28;20033;-75
2022/06/06 11:19:23;;;;;;;4.28;2.72;;;26.90;99.90;;;;;;5024418;28;20026;-74
2022/06/06 11:22:31;;;;;;;3.03;2.17;;;27.00;99.90;;;;;;5020274;28;20026;-75
2022/06/06 11:25:12;;;;;;;7.00;2.63;;;26.80;99.90;;;;;;4939047;29;20122;-75
2022/06/06 11:27:59;;;;;;;4.90;2.55;;;26.50;99.90;;;;;;4957715;29;20027;-74
2022/06/06 11:30:45;;;;;;;8.27;2.92;;;26.50;99.90;;;;;;4988409;28;20033;-74
2022/06/06 11:33:32;;;;;;;5.70;2.85;;;26.80;99.90;;;;;;5025167;28;20048;-75
2022/06/06 11:36:20;;;;;;;5.15;2.47;;;26.90;99.90;;;;;;5034409;28;20028;-74
2022/06/06 11:38:58;;;;;;;4.60;2.75;;;26.90;99.90;;;;;;5016590;28;20056;-74
2022/06/06 11:41:42;;;;;;;6.00;2.35;;;27.00;99.90;;;;;;5017424;28;20477;-74
2022/06/06 11:44:33;;;;;;;7.38;3.50;;;27.00;99.90;;;;;;5031912;28;20056;-74
2022/06/06 11:47:33;;;;;;;7.25;3.65;;;27.10;99.90;;;;;;5030221;28;20075;-74
2022/06/06 11:50:14;;;;;;;6.07;2.60;;;27.20;99.90;;;;;;5029892;28;20033;-74
2022/06/06 11:52:58;;;;;;;5.18;2.60;;;27.40;99.90;;;;;;5035743;28;20132;-74
2022/06/06 11:55:39;;;;;;;5.85;2.97;;;27.50;99.90;;;;;;5026002;28;20504;-74
2022/06/06 11:58:39;;;;;;;8.40;2.10;;;27.60;99.90;;;;;;5016155;28;20017;-73
2022/06/06 12:01:11;;;;;;;;;;;27.90;99.90;;;;;;4987575;28;20486;-74
2022/06/06 12:04:21;;;;;;;4.03;2.80;;;27.80;97.80;;;;;;5012144;28;19996;-74
2022/06/06 12:06:50;;;;;;;6.05;2.80;;;27.60;98.20;;;;;;5008735;28;20017;-75
2022/06/06 12:09:33;;;;;;;4.93;2.05;;;27.40;98.70;;;;;;5019183;28;20033;-74
2022/06/06 12:12:04;;;;;;;4.75;2.58;;;27.50;99.00;;;;;;5004416;28;20022;-75
2022/06/06 12:14:48;;;;;;;6.50;2.78;;;27.60;98.10;;;;;;5026748;28;20458;-75
2022/06/06 12:17:51;;;;;;;5.22;2.50;;;27.70;99.90;;;;;;5024280;28;20025;-74
2022/06/06 12:20:26;;;;;;;5.50;2.38;;;27.80;99.40;;;;;;5008507;28;20060;-74
2022/06/06 12:23:15;;;;;;;3.13;2.38;;;28.10;98.60;;;;;;5006918;28;20404;-74
2022/06/06 12:26:03;;;;;;;5.05;2.00;;;28.40;97.60;;;;;;5012893;28;20028;-74
2022/06/06 12:28:49;;;;;;;9.85;2.45;;;28.50;97.10;;;;;;5031680;28;20444;-74
2022/06/06 12:31:23;;;;;;;5.88;2.65;;;28.80;98.40;;;;;;5026981;28;20386;-74
2022/06/06 12:34:04;;;;;;;3.13;1.95;;;28.90;96.60;;;;;;5034865;28;20056;-74
2022/06/06 12:36:53;;;;;;;8.02;2.22;;;28.90;94.90;;;;;;5025029;28;20490;-74
2022/06/06 12:39:44;;;;;;;5.88;2.60;;;28.90;96.00;;;;;;5001305;28;20030;-74
2022/06/06 12:42:21;;;;;;;3.97;1.98;;;29.00;94.90;;;;;;5022634;28;20045;-72
2022/06/06 12:45:09;;;;;;;7.22;2.13;;;29.20;95.80;;;;;;5027333;28;20018;-72
2022/06/06 12:47:37;;;;;;;6.95;1.48;;;29.20;93.30;;;;;;5004462;28;20042;-72
2022/06/06 12:50:19;;;;;;;6.47;2.13;;;29.40;95.90;;;;;;5025959;28;20091;-73
2022/06/06 12:53:22;;;;;;;4.28;1.98;;;29.30;93.60;;;;;;5025043;28;20025;-73
2022/06/06 12:56:23;;;;;;;6.50;1.80;;;29.50;94.50;;;;;;5025192;28;20030;-73
2022/06/06 12:59:17;;;;;;;6.75;3.05;;;29.70;94.60;;;;;;5025202;28;20315;-73
2022/06/06 13:01:49;;;;;;;6.35;2.60;;;30.20;92.30;;;;;;5015081;28;20045;-73
2022/06/06 13:04:26;;;;;;;5.05;2.40;;;30.00;91.60;;;;;;5032663;28;20045;-75
2022/06/06 13:07:14;;;;;;;5.32;2.38;;;29.70;92.30;;;;;;5024986;28;20029;-74
2022/06/06 13:10:16;;;;;;;4.13;2.08;;;29.50;91.30;;;;;;5035519;28;20105;-73
2022/06/06 13:13:04;;;;;;;4.13;1.70;;;29.50;91.90;;;;;;5004554;28;20061;-72
2022/06/06 13:15:58;;;;;;;2.92;1.80;;;29.90;91.40;;;;;;5024581;28;20034;-73
2022/06/06 13:18:53;;;;;;;3.80;1.65;;;30.30;89.90;;;;;;5019793;28;20037;-73
2022/06/06 13:21:40;;;;;;;4.32;2.30;;;30.40;89.30;;;;;;5006020;28;20030;-75
2022/06/06 13:24:22;;;;;;;5.93;2.08;;;30.30;87.70;;;;;;5023427;28;20025;-74
2022/06/06 13:26:53;;;;;;;6.32;2.10;;;30.20;90.20;;;;;;5005285;28;20029;-74
2022/06/06 13:29:35;;;;;;;5.80;1.90;;;30.00;89.30;;;;;;5027998;28;20026;-74
2022/06/06 13:32:40;;;;;;;6.03;2.10;;;30.10;90.10;;;;;;5025272;28;20086;-74
2022/06/06 13:35:27;;;;;;;4.32;1.75;;;29.90;88.10;;;;;;5012026;28;20025;-73
2022/06/06 13:38:08;;;;;;;8.27;2.08;;;29.80;90.50;;;;;;5036435;28;20117;-73
2022/06/06 13:40:44;;;;;;;2.92;1.80;;;29.50;88.70;;;;;;5031328;28;20014;-74
2022/06/06 13:43:38;;;;;;;5.18;1.65;;;29.40;90.50;;;;;;5005040;28;20032;-73
2022/06/06 13:46:09;;;;;;;3.50;1.80;;;29.50;90.90;;;;;;5035899;28;20474;-73
2022/06/06 13:48:53;;;;;;;4.85;1.98;;;29.50;90.30;;;;;;5036072;28;20060;-74
2022/06/06 13:51:21;;;;;;;4.47;1.42;;;29.50;87.60;;;;;;5019578;28;20026;-73
2022/06/06 13:54:01;;;;;;;4.47;2.15;;;29.40;90.00;;;;;;5032909;28;20077;-74
2022/06/06 13:56:39;;;;;;;1.95;1.40;;;29.40;91.90;;;;;;5004886;28;20030;-73
2022/06/06 13:59:43;;;;;;;4.05;1.85;;;29.80;91.20;;;;;;5004407;28;20113;-72
2022/06/06 14:02:24;;;;;;;5.93;1.88;;;30.40;90.10;;;;;;5023594;28;20046;-72
2022/06/06 14:04:52;;;;;;;5.82;2.03;;;30.80;86.20;;;;;;5028174;28;20125;-73
2022/06/06 14:07:32;;;;;;;6.75;2.72;;;31.00;86.30;;;;;;5007313;28;20486;-73
2022/06/06 14:10:09;;;;;;;2.33;1.60;;;30.70;84.90;;;;;;5033952;28;20025;-73
2022/06/06 14:13:07;;;;;;;4.00;2.22;;;30.80;85.00;;;;;;5011706;28;20029;-73
2022/06/06 14:15:43;;;;;;;3.75;2.00;;;30.80;85.50;;;;;;4991464;28;20034;-74
2022/06/06 14:18:13;;;;;;;5.03;1.98;;;30.60;85.90;;;;;;5027699;28;20036;-72
2022/06/06 14:20:52;;;;;;;3.97;2.15;;;30.50;87.80;;;;;;5034313;28;20020;-73
2022/06/06 14:23:26;;;;;;;8.00;2.63;;;31.20;88.00;;;;;;5021904;28;20017;-73
2022/06/06 14:26:13;;;;;;;6.30;1.80;;;31.30;84.90;;;;;;5035926;28;20031;-73
2022/06/06 14:28:42;;;;;;;6.05;2.05;;;32.70;84.10;;;;;;5026749;28;20022;-74